createdAt,value
2023-01-23T00:03:09.151Z,101893.77
2023-01-23T00:07:12.664Z,101895.73
2023-01-23T00:11:20.320Z,101892.23
2023-01-23T00:15:23.570Z,101896.70
2023-01-23T00:19:26.840Z,101895.35
2023-01-23T00:23:29.949Z,101894.53
2023-01-23T00:27:33.664Z,101897.23
2023-01-23T00:31:39.230Z,101905.41
2023-01-23T00:35:42.653Z,101904.09
2023-01-23T00:39:46.201Z,101899.62
2023-01-23T00:43:52.053Z,101897.07
2023-01-23T00:47:55.276Z,101900.53
2023-01-23T00:51:58.458Z,101908.80
2023-01-23T00:56:02.146Z,101906.64
2023-01-23T01:00:05.864Z,101908.80
2023-01-23T01:04:09.265Z,101910.90
2023-01-23T01:08:12.680Z,101921.77
2023-01-23T01:12:15.837Z,101925.38
2023-01-23T01:16:20.091Z,101930.52
2023-01-23T01:20:26.216Z,101932.90
2023-01-23T01:24:29.528Z,101946.10
2023-01-23T01:28:34.548Z,101951.78
2023-01-23T01:32:38.923Z,101955.45
2023-01-23T01:36:42.001Z,101966.63
2023-01-23T01:40:45.309Z,101962.58
2023-01-23T01:44:54.308Z,101955.10
2023-01-23T01:49:15.863Z,101964.73
2023-01-23T01:53:21.980Z,101969.72
2023-01-23T01:57:35.859Z,101972.77
2023-01-23T02:01:40.499Z,101973.93
2023-01-23T02:05:45.434Z,101970.42
2023-01-23T02:09:49.436Z,101974.05
2023-01-23T02:13:55.412Z,101979.23
2023-01-23T02:17:58.603Z,101988.02
2023-01-23T02:22:47.715Z,101991.44
2023-01-23T02:26:51.068Z,101995.10
2023-01-23T02:30:54.586Z,102002.16
2023-01-23T02:35:00.304Z,102010.02
2023-01-23T02:39:08.185Z,102004.50
2023-01-23T02:43:15.185Z,102000.67
2023-01-23T02:47:18.371Z,102007.35
2023-01-23T02:51:22.483Z,102012.62
2023-01-23T02:55:30.433Z,102020.88
2023-01-23T03:00:02.785Z,102021.70
2023-01-23T03:04:06.554Z,102024.33
2023-01-23T03:08:10.002Z,102032.94
2023-01-23T03:12:13.290Z,102035.90
2023-01-23T03:16:16.635Z,102038.08
2023-01-23T03:20:20.534Z,102030.34
2023-01-23T03:24:23.867Z,102031.77
2023-01-23T03:28:47.646Z,102030.55
2023-01-23T03:32:51.415Z,102029.53
2023-01-23T03:36:54.523Z,102036.88
2023-01-23T03:41:16.253Z,102041.73
2023-01-23T03:45:19.355Z,102049.14
2023-01-23T03:49:23.615Z,102050.20
2023-01-23T03:53:27.036Z,102053.15
2023-01-23T03:57:30.176Z,102047.29
2023-01-23T04:01:34.906Z,102048.29
2023-01-23T04:05:38.542Z,102048.31
2023-01-23T04:09:41.701Z,102046.65
2023-01-23T04:13:46.657Z,102046.49
2023-01-23T04:17:50.054Z,102049.48
2023-01-23T04:21:53.597Z,102051.42
2023-01-23T04:25:57.852Z,102054.73
2023-01-23T04:30:01.607Z,102051.14
2023-01-23T04:34:05.450Z,102044.97
2023-01-23T04:38:09.011Z,102041.04
2023-01-23T04:42:12.492Z,102038.34
2023-01-23T04:46:16.429Z,102043.85
2023-01-23T04:50:20.404Z,102047.30
2023-01-23T04:54:23.929Z,102052.55
2023-01-23T04:58:27.702Z,102053.91
2023-01-23T05:02:31.060Z,102065.40
2023-01-23T05:06:34.865Z,102072.21
2023-01-23T05:10:38.503Z,102073.06
2023-01-23T05:14:42.372Z,102075.36
2023-01-23T05:18:45.624Z,102074.33
2023-01-23T05:22:54.848Z,102080.67
2023-01-23T05:26:58.813Z,102088.78
2023-01-23T05:31:02.142Z,102103.90
2023-01-23T05:35:06.159Z,102108.95
2023-01-23T05:39:09.388Z,102114.67
2023-01-23T05:43:15.387Z,102116.02
2023-01-23T05:47:18.564Z,102120.54
2023-01-23T05:51:23.555Z,102119.86
2023-01-23T05:55:26.672Z,102118.98
2023-01-23T05:59:30.323Z,102119.08
2023-01-23T06:03:34.046Z,102124.28
2023-01-23T06:07:37.747Z,102127.37
2023-01-23T06:11:41.391Z,102136.70
2023-01-23T06:15:44.717Z,102135.02
2023-01-23T06:19:48.889Z,102138.19
2023-01-23T06:23:52.125Z,102142.03
2023-01-23T06:27:55.454Z,102151.70
2023-01-23T06:31:58.720Z,102157.98
2023-01-23T06:36:05.670Z,102179.29
2023-01-23T06:40:13.398Z,102181.90
2023-01-23T06:44:16.769Z,102188.05
2023-01-23T06:48:20.960Z,102186.48
2023-01-23T06:52:24.169Z,102190.60
2023-01-23T06:56:27.399Z,102194.18
2023-01-23T07:00:31.511Z,102198.05
2023-01-23T07:04:34.787Z,102207.85
2023-01-23T07:08:38.633Z,102217.31
2023-01-23T07:12:41.871Z,102225.77
2023-01-23T07:16:45.184Z,102230.47
2023-01-23T07:20:50.053Z,102236.05
2023-01-23T07:24:53.684Z,102232.85
2023-01-23T07:28:56.765Z,102231.09
2023-01-23T07:33:00.226Z,102233.88
2023-01-23T07:37:03.530Z,102233.27
2023-01-23T07:41:07.139Z,102234.92
2023-01-23T07:45:11.174Z,102236.80
2023-01-23T07:49:14.489Z,102239.57
2023-01-23T07:53:17.617Z,102242.44
2023-01-23T07:57:20.725Z,102244.41
2023-01-23T08:01:24.065Z,102244.33
2023-01-23T08:05:27.624Z,102242.92
2023-01-23T08:09:30.869Z,102248.50
2023-01-23T08:13:34.024Z,102252.92
2023-01-23T08:17:37.492Z,102252.84
2023-01-23T08:21:40.850Z,102251.09
2023-01-23T08:25:43.994Z,102252.04
2023-01-23T08:29:47.391Z,102257.72
2023-01-23T08:33:50.532Z,102261.09
2023-01-23T08:37:53.735Z,102259.23
2023-01-23T08:41:56.957Z,102258.21
2023-01-23T08:46:00.584Z,102256.39
2023-01-23T08:50:05.458Z,102261.46
2023-01-23T08:54:08.516Z,102270.25
2023-01-23T08:58:13.258Z,102274.81
2023-01-23T09:02:16.432Z,102274.55
2023-01-23T09:06:21.781Z,102276.36
2023-01-23T09:10:25.529Z,102275.14
2023-01-23T09:14:28.666Z,102277.98
2023-01-23T09:18:32.075Z,102277.86
2023-01-23T09:22:35.515Z,102277.88
2023-01-23T09:26:38.670Z,102284.48
2023-01-23T09:30:42.454Z,102288.06
2023-01-23T09:34:49.034Z,102289.86
2023-01-23T09:38:51.984Z,102289.37
2023-01-23T09:42:58.942Z,102284.40
2023-01-23T09:47:13.637Z,102282.27
2023-01-23T09:51:29.117Z,102279.59
2023-01-23T09:55:49.769Z,102276.68
2023-01-23T10:00:00.216Z,102281.70
2023-01-23T10:04:05.701Z,102278.89
2023-01-23T10:08:34.314Z,102275.27
2023-01-23T10:12:49.414Z,102278.46
2023-01-23T10:17:23.147Z,102279.49
2023-01-23T10:21:36.218Z,102277.20
2023-01-23T10:25:41.277Z,102274.37
2023-01-23T10:29:49.498Z,102273.31
2023-01-23T10:34:00.035Z,102272.96
2023-01-23T10:38:26.245Z,102275.84
2023-01-23T10:42:29.643Z,102277.55
2023-01-23T10:46:49.025Z,102275.40
2023-01-23T10:50:52.129Z,102273.96
2023-01-23T10:54:55.314Z,102276.16
2023-01-23T10:59:01.888Z,102278.79
2023-01-23T11:03:20.173Z,102276.87
2023-01-23T11:07:32.505Z,102273.84
2023-01-23T11:11:36.459Z,102264.81
2023-01-23T11:15:42.774Z,102264.55
2023-01-23T11:19:48.815Z,102260.73
2023-01-23T11:24:20.438Z,102255.77
2023-01-23T11:28:47.673Z,102253.86
2023-01-23T11:33:02.141Z,102253.63
2023-01-23T11:37:17.735Z,102254.18
2023-01-23T11:41:28.465Z,102251.29
2023-01-23T11:45:43.986Z,102253.09
2023-01-23T11:50:05.575Z,102252.82
2023-01-23T11:54:29.372Z,102242.27
2023-01-23T11:59:12.908Z,102235.48
2023-01-23T12:03:34.465Z,102230.04
2023-01-23T12:07:43.768Z,102232.13
2023-01-23T12:12:11.205Z,102233.38
2023-01-23T12:16:26.580Z,102235.46
2023-01-23T12:20:37.904Z,102231.36
2023-01-23T12:25:18.439Z,102229.80
2023-01-23T12:29:39.522Z,102226.02
2023-01-23T12:34:00.760Z,102226.34
2023-01-23T12:38:25.141Z,102232.55
2023-01-23T12:42:41.521Z,102231.86
2023-01-23T12:46:57.319Z,102229.23
2023-01-23T12:51:12.769Z,102234.79
2023-01-23T12:55:19.349Z,102231.98
2023-01-23T12:59:48.203Z,102230.23
2023-01-23T13:03:57.082Z,102229.14
2023-01-23T13:08:13.352Z,102233.11
2023-01-23T13:12:25.530Z,102236.70
2023-01-23T13:16:32.088Z,102235.44
2023-01-23T13:20:55.813Z,102234.70
2023-01-23T13:25:13.192Z,102239.50
2023-01-23T13:29:49.927Z,102240.36
2023-01-23T13:33:58.844Z,102241.95
2023-01-23T13:38:42.416Z,102231.85
2023-01-23T13:42:45.924Z,102240.14
2023-01-23T14:23:16.921Z,102252.22
2023-01-23T14:32:21.105Z,102261.77
2023-01-23T15:24:36.976Z,102269.75
2023-01-23T15:28:49.150Z,102270.01
2023-01-23T15:32:53.235Z,102271.98
2023-01-23T15:37:14.407Z,102272.36
2023-01-23T15:41:30.158Z,102278.80
2023-01-23T15:59:24.413Z,102282.86
2023-01-23T16:03:28.533Z,102286.92
2023-01-23T16:26:30.009Z,102298.13
2023-01-23T16:30:34.759Z,102302.16
2023-01-23T17:07:50.979Z,102335.53
2023-01-23T17:11:57.147Z,102333.64
2023-01-23T17:16:01.182Z,102332.27
2023-01-23T17:20:31.418Z,102334.55
2023-01-23T17:24:35.062Z,102338.27
2023-01-23T17:33:32.278Z,102336.71
2023-01-23T17:51:34.223Z,102346.58
2023-01-23T17:55:40.985Z,102341.68
2023-01-23T18:14:40.249Z,102352.92
2023-01-23T18:18:44.527Z,102348.69
2023-01-23T18:22:49.406Z,102345.36
2023-01-23T18:27:23.801Z,102344.55
2023-01-23T18:32:03.370Z,102350.02
2023-01-23T18:36:21.854Z,102351.41
2023-01-23T18:40:29.944Z,102350.39
2023-01-23T18:44:34.818Z,102349.19
2023-01-23T18:48:41.147Z,102350.62
2023-01-23T18:53:25.288Z,102351.88
2023-01-23T18:57:52.054Z,102353.59
2023-01-23T19:07:19.209Z,102354.84
2023-01-23T19:11:52.836Z,102360.80
2023-01-23T19:16:06.447Z,102364.30
2023-01-23T19:20:35.977Z,102362.04
2023-01-23T19:24:39.139Z,102363.33
2023-01-23T19:28:42.379Z,102362.23
2023-01-23T19:32:48.248Z,102357.95
2023-01-23T19:36:51.042Z,102354.23
2023-01-23T19:40:55.146Z,102355.05
2023-01-23T19:44:58.873Z,102351.86
2023-01-23T19:49:03.909Z,102351.36
2023-01-23T19:53:06.883Z,102350.11
2023-01-23T19:57:09.808Z,102352.92
2023-01-23T20:01:33.375Z,102356.25
2023-01-23T20:05:36.227Z,102357.79
2023-01-23T20:09:39.561Z,102354.95
2023-01-23T20:13:42.496Z,102355.66
2023-01-23T20:17:46.534Z,102354.77
2023-01-23T20:21:55.362Z,102355.49
2023-01-23T20:26:00.428Z,102353.20
2023-01-23T20:30:08.074Z,102357.05
2023-01-23T20:34:10.845Z,102356.75
2023-01-23T20:38:13.726Z,102362.39
2023-01-23T20:43:16.526Z,102362.91
2023-01-23T20:47:19.366Z,102362.91
2023-01-23T20:51:27.474Z,102364.13
2023-01-23T20:55:30.234Z,102357.64
2023-01-23T20:59:33.637Z,102362.02
2023-01-23T21:03:36.980Z,102359.56
2023-01-23T21:07:42.200Z,102359.36
2023-01-23T21:12:15.777Z,102359.71
2023-01-23T21:16:19.068Z,102360.60
2023-01-23T21:20:27.116Z,102358.53
2023-01-23T21:24:34.257Z,102356.02
2023-01-23T21:29:29.887Z,102359.52
2023-01-23T21:33:32.674Z,102359.51
2023-01-23T21:37:43.863Z,102355.98
2023-01-23T21:41:46.959Z,102353.69
2023-01-23T21:45:49.724Z,102356.83
2023-01-23T21:49:52.576Z,102355.26
2023-01-23T21:53:55.599Z,102352.64
2023-01-23T21:57:58.352Z,102354.19
2023-01-23T22:02:01.147Z,102352.80
2023-01-23T22:06:04.185Z,102355.48
2023-01-23T22:10:32.856Z,102354.69
2023-01-23T22:14:35.719Z,102353.63
2023-01-23T22:18:38.614Z,102352.57
2023-01-23T22:22:41.417Z,102344.52
2023-01-23T22:26:44.238Z,102337.69
2023-01-23T22:30:47.111Z,102333.23
2023-01-23T22:34:50.029Z,102334.05
2023-01-23T22:39:05.415Z,102332.86
2023-01-23T22:43:09.240Z,102338.66
2023-01-23T22:47:27.259Z,102334.80
2023-01-23T22:51:31.533Z,102339.13
2023-01-23T22:55:34.375Z,102352.04
2023-01-23T22:59:37.183Z,102357.33
2023-01-23T23:03:40.414Z,102354.91
2023-01-23T23:08:37.356Z,102356.23
2023-01-23T23:12:40.237Z,102361.77
2023-01-23T23:16:55.631Z,102361.20
2023-01-23T23:21:00.484Z,102355.16
2023-01-23T23:26:25.053Z,102352.66
2023-01-23T23:30:27.948Z,102357.31
2023-01-23T23:34:32.939Z,102362.27
2023-01-23T23:38:35.761Z,102363.37
2023-01-23T23:42:43.603Z,102362.76
2023-01-23T23:46:46.499Z,102363.30
2023-01-23T23:51:58.625Z,102358.52
2023-01-23T23:56:01.763Z,102358.03
